createdAt,value
2022-11-08T00:00:59.080Z,5.68
2022-11-08T00:03:28.801Z,6.78
2022-11-08T00:06:15.948Z,7.70
2022-11-08T00:09:02.530Z,1.83
2022-11-08T00:11:51.551Z,6.82
2022-11-08T00:14:22.894Z,8.18
2022-11-08T00:16:51.080Z,5.50
2022-11-08T00:19:18.793Z,9.25
2022-11-08T00:21:49.942Z,4.35
2022-11-08T00:24:23.311Z,6.88
2022-11-08T00:26:55.951Z,3.13
2022-11-08T00:29:26.394Z,3.40
2022-11-08T00:31:56.916Z,6.07
2022-11-08T00:34:27.353Z,3.45
2022-11-08T00:36:55.231Z,3.78
2022-11-08T00:39:23.377Z,4.28
2022-11-08T00:41:51.142Z,1.95
2022-11-08T00:44:23.643Z,4.95
2022-11-08T00:46:57.188Z,0.90
2022-11-08T00:49:27.076Z,4.18
2022-11-08T00:51:55.346Z,1.42
2022-11-08T00:54:26.804Z,1.55
2022-11-08T00:56:57.017Z,2.53
2022-11-08T00:59:27.880Z,4.85
2022-11-08T01:01:58.227Z,1.30
2022-11-08T01:04:28.475Z,4.00
2022-11-08T01:06:58.981Z,3.22
2022-11-08T01:09:31.143Z,1.05
2022-11-08T01:11:58.822Z,2.47
2022-11-08T01:14:30.487Z,0.75
2022-11-08T01:16:58.173Z,3.67
2022-11-08T01:19:25.883Z,2.00
2022-11-08T01:21:56.276Z,1.90
2022-11-08T01:24:26.273Z,7.40
2022-11-08T01:26:54.095Z,1.67
2022-11-08T01:29:24.564Z,3.10
2022-11-08T01:31:54.815Z,2.30
2022-11-08T01:34:22.586Z,1.00
2022-11-08T01:36:51.946Z,5.82
2022-11-08T01:39:20.627Z,1.10
2022-11-08T01:41:53.264Z,3.80
2022-11-08T01:44:22.126Z,1.65
2022-11-08T01:46:50.465Z,2.88
2022-11-08T01:49:29.757Z,7.28
2022-11-08T01:51:57.499Z,2.65
2022-11-08T01:54:37.959Z,5.35
2022-11-08T01:57:09.018Z,2.05
2022-11-08T01:59:42.667Z,4.40
2022-11-08T02:02:11.685Z,1.25
2022-11-08T02:04:43.870Z,5.53
2022-11-08T02:07:13.225Z,3.03
2022-11-08T02:09:43.604Z,1.77
2022-11-08T02:12:12.337Z,4.78
2022-11-08T02:14:40.048Z,4.15
2022-11-08T02:17:13.419Z,3.35
2022-11-08T02:19:49.012Z,5.03
2022-11-08T02:22:27.964Z,4.70
2022-11-08T02:24:58.500Z,5.85
2022-11-08T02:29:59.619Z,2.42
2022-11-08T02:32:27.424Z,2.45
2022-11-08T02:34:59.895Z,1.42
2022-11-08T02:37:30.311Z,0.93
2022-11-08T02:39:58.002Z,2.88
2022-11-08T02:42:31.815Z,5.45
2022-11-08T02:45:00.067Z,3.22
2022-11-08T02:47:28.732Z,2.45
2022-11-08T02:49:56.484Z,1.67
2022-11-08T02:52:24.799Z,3.40
2022-11-08T02:54:52.721Z,1.77
2022-11-08T02:57:20.950Z,1.75
2022-11-08T02:59:49.372Z,2.40
2022-11-08T03:02:17.712Z,2.63
2022-11-08T03:04:46.242Z,1.48
2022-11-08T03:07:18.520Z,1.25
2022-11-08T03:09:50.683Z,0.43
2022-11-08T03:12:20.218Z,1.10
2022-11-08T03:14:47.999Z,3.55
2022-11-08T03:17:15.765Z,1.42
2022-11-08T03:19:43.439Z,2.63
2022-11-08T03:22:12.137Z,3.55
2022-11-08T03:24:43.371Z,3.83
2022-11-08T03:27:11.131Z,3.88
2022-11-08T03:29:42.048Z,3.53
2022-11-08T03:32:09.841Z,1.08
2022-11-08T03:34:38.223Z,3.85
2022-11-08T03:37:07.500Z,3.60
2022-11-08T03:39:37.842Z,5.82
2022-11-08T03:42:06.818Z,2.20
2022-11-08T03:44:35.062Z,2.90
2022-11-08T03:47:05.826Z,2.72
2022-11-08T03:49:34.401Z,3.13
2022-11-08T03:52:02.203Z,3.17
2022-11-08T03:54:32.439Z,3.15
2022-11-08T03:57:00.275Z,6.82
2022-11-08T03:59:27.971Z,2.83
2022-11-08T04:01:56.002Z,1.38
2022-11-08T04:04:28.505Z,4.07
2022-11-08T04:06:58.427Z,6.20
2022-11-08T04:09:29.699Z,2.50
2022-11-08T04:12:17.066Z,2.25
2022-11-08T04:15:03.914Z,4.10
2022-11-08T04:17:50.490Z,2.63
2022-11-08T04:20:37.517Z,1.13
2022-11-08T04:23:05.860Z,2.22
2022-11-08T04:25:36.574Z,1.38
2022-11-08T04:28:05.058Z,0.60
2022-11-08T04:33:04.856Z,2.08
2022-11-08T04:35:34.417Z,1.30
2022-11-08T04:38:05.021Z,4.15
2022-11-08T04:40:33.325Z,2.92
2022-11-08T04:43:01.048Z,2.88
2022-11-08T04:45:29.311Z,5.90
2022-11-08T04:47:56.997Z,3.10
2022-11-08T04:52:57.832Z,2.67
2022-11-08T04:55:30.948Z,3.47
2022-11-08T04:57:59.552Z,5.18
2022-11-08T05:00:32.047Z,3.55
2022-11-08T05:03:05.735Z,3.08
2022-11-08T05:05:33.926Z,1.20
2022-11-08T05:08:01.627Z,5.70
2022-11-08T05:10:32.940Z,3.55
2022-11-08T05:13:03.631Z,1.05
2022-11-08T05:15:31.838Z,3.90
2022-11-08T05:18:02.828Z,6.43
2022-11-08T05:20:51.714Z,4.55
2022-11-08T05:23:25.634Z,3.50
2022-11-08T05:25:54.842Z,6.30
2022-11-08T05:28:25.026Z,3.60
2022-11-08T05:30:54.467Z,5.10
2022-11-08T05:33:23.134Z,4.03
2022-11-08T05:35:51.216Z,4.50
2022-11-08T05:38:19.812Z,5.78
2022-11-08T05:40:51.389Z,4.78
2022-11-08T05:43:22.447Z,5.75
2022-11-08T05:45:52.392Z,2.15
2022-11-08T05:48:23.888Z,3.38
2022-11-08T05:50:58.268Z,1.92
2022-11-08T05:53:26.004Z,4.05
2022-11-08T05:56:04.077Z,4.65
2022-11-08T05:58:33.234Z,3.60
2022-11-08T06:01:03.758Z,2.55
2022-11-08T06:03:37.129Z,1.77
2022-11-08T06:06:07.831Z,10.13
2022-11-08T06:11:13.501Z,4.85
2022-11-08T06:13:41.940Z,2.25
2022-11-08T06:16:13.067Z,7.15
2022-11-08T06:18:43.412Z,1.20
2022-11-08T06:21:13.008Z,4.00
2022-11-08T06:23:44.265Z,4.38
2022-11-08T06:26:16.017Z,6.85
2022-11-08T06:28:44.785Z,4.35
2022-11-08T06:31:12.443Z,2.30
2022-11-08T06:33:40.671Z,7.00
2022-11-08T06:36:11.332Z,12.30
2022-11-08T06:38:39.375Z,4.05
2022-11-08T06:41:08.010Z,5.47
2022-11-08T06:43:35.977Z,6.38
2022-11-08T06:46:07.469Z,8.68
2022-11-08T06:48:38.048Z,4.85
2022-11-08T06:51:09.444Z,4.70
2022-11-08T06:53:37.690Z,11.27
2022-11-08T06:56:05.986Z,6.53
2022-11-08T06:58:37.016Z,3.08
2022-11-08T07:01:09.698Z,3.88
2022-11-08T07:03:37.456Z,3.33
2022-11-08T07:06:08.907Z,9.27
2022-11-08T07:08:36.771Z,16.23
2022-11-08T07:11:05.101Z,10.48
2022-11-08T07:13:32.813Z,7.50
2022-11-08T07:16:01.032Z,10.70
2022-11-08T07:18:29.653Z,7.53
2022-11-08T07:21:02.192Z,5.70
2022-11-08T07:23:32.286Z,15.95
2022-11-08T07:26:05.056Z,7.40
2022-11-08T07:28:36.245Z,8.45
2022-11-08T07:31:05.144Z,8.02
2022-11-08T07:33:35.922Z,8.93
2022-11-08T07:36:04.409Z,8.70
2022-11-08T07:38:35.945Z,11.60
2022-11-08T07:41:06.723Z,10.45
2022-11-08T07:43:35.008Z,11.95
2022-11-08T07:46:11.310Z,8.35
2022-11-08T07:48:39.005Z,15.02
2022-11-08T07:51:08.140Z,13.88
2022-11-08T07:53:36.472Z,12.65
2022-11-08T07:56:07.745Z,11.27
2022-11-08T07:58:37.808Z,15.55
2022-11-08T08:01:09.346Z,11.43
2022-11-08T08:03:37.568Z,14.75
2022-11-08T08:06:06.684Z,16.83
2022-11-08T08:08:36.626Z,13.60
2022-11-08T08:11:05.219Z,10.57
2022-11-08T08:13:33.449Z,8.73
2022-11-08T08:16:02.268Z,13.80
2022-11-08T08:18:32.552Z,11.38
2022-11-08T08:21:01.012Z,10.63
2022-11-08T08:23:28.694Z,13.57
2022-11-08T08:26:04.466Z,11.50
2022-11-08T08:28:32.266Z,16.73
2022-11-08T08:31:01.284Z,18.50
2022-11-08T08:33:31.947Z,14.02
2022-11-08T08:36:05.104Z,19.90
2022-11-08T08:38:41.477Z,10.38
2022-11-08T08:41:14.660Z,13.68
2022-11-08T08:43:43.904Z,21.45
2022-11-08T08:46:12.017Z,15.32
2022-11-08T08:48:40.347Z,12.43
2022-11-08T08:51:08.129Z,12.02
2022-11-08T08:53:38.336Z,7.93
2022-11-08T08:56:10.170Z,13.20
2022-11-08T08:58:40.504Z,11.63
2022-11-08T09:03:59.477Z,14.35
2022-11-08T09:06:30.150Z,14.57
2022-11-08T09:11:28.651Z,12.57
2022-11-08T09:13:56.378Z,20.75
2022-11-08T09:18:54.978Z,16.42
2022-11-08T09:21:22.906Z,12.35
2022-11-08T09:23:51.131Z,15.40
2022-11-08T09:26:18.974Z,11.43
2022-11-08T09:28:47.280Z,12.02
2022-11-08T09:33:47.189Z,15.98
2022-11-08T09:36:17.130Z,13.07
2022-11-08T09:38:44.792Z,15.95
2022-11-08T09:41:55.633Z,19.85
2022-11-08T09:44:29.633Z,10.73
2022-11-08T09:47:02.471Z,8.68
2022-11-08T09:49:40.296Z,11.63
2022-11-08T09:52:20.359Z,21.60
2022-11-08T09:57:26.795Z,16.10
2022-11-08T10:00:04.759Z,11.02
2022-11-08T10:02:34.999Z,18.75
2022-11-08T10:05:16.719Z,19.05
2022-11-08T10:08:11.226Z,11.77
2022-11-08T10:11:09.338Z,20.98
2022-11-08T10:13:49.242Z,18.65
2022-11-08T10:16:33.536Z,16.65
2022-11-08T10:19:39.808Z,14.80
2022-11-08T10:22:23.635Z,8.93
2022-11-08T10:25:00.945Z,22.25
2022-11-08T10:27:41.055Z,24.20
2022-11-08T10:30:23.754Z,19.60
2022-11-08T10:32:55.193Z,14.25
2022-11-08T10:35:35.892Z,22.30
2022-11-08T10:38:14.171Z,15.13
2022-11-08T10:41:05.311Z,9.95
2022-11-08T10:43:39.717Z,15.00
2022-11-08T10:48:52.385Z,16.35
2022-11-08T10:51:22.529Z,20.55
2022-11-08T10:53:52.356Z,14.98
2022-11-08T10:56:20.765Z,12.75
2022-11-08T11:01:28.181Z,12.07
2022-11-08T11:04:24.921Z,13.45
2022-11-08T11:06:55.224Z,13.65
2022-11-08T11:09:27.505Z,13.73
2022-11-08T11:12:00.711Z,12.35
2022-11-08T11:14:28.491Z,19.13
2022-11-08T11:17:19.556Z,7.03
2022-11-08T11:19:57.577Z,11.60
2022-11-08T11:22:34.556Z,12.27
2022-11-08T11:27:43.741Z,12.38
2022-11-08T11:30:33.171Z,13.45
2022-11-08T11:33:24.598Z,16.85
2022-11-08T11:36:22.448Z,8.35
2022-11-08T11:39:05.187Z,9.00
2022-11-08T11:41:46.054Z,5.72
2022-11-08T11:44:34.232Z,7.25
2022-11-08T11:47:30.339Z,8.35
2022-11-08T11:50:11.414Z,8.77
2022-11-08T11:52:42.516Z,5.60
2022-11-08T11:55:17.623Z,5.68
2022-11-08T11:58:14.285Z,3.55
2022-11-08T12:00:53.865Z,4.22
2022-11-08T12:03:22.108Z,3.42
2022-11-08T12:06:07.507Z,3.42
2022-11-08T12:09:00.652Z,5.43
2022-11-08T12:12:04.731Z,3.08
2022-11-08T12:14:51.223Z,4.78
2022-11-08T12:17:41.547Z,5.13
2022-11-08T12:20:26.840Z,2.97
2022-11-08T12:23:06.605Z,1.35
2022-11-08T12:26:08.628Z,3.47
2022-11-08T12:29:06.773Z,3.05
2022-11-08T12:31:59.000Z,2.63
2022-11-08T12:34:44.760Z,2.20
2022-11-08T12:37:15.471Z,5.82
2022-11-08T12:39:51.697Z,1.20
2022-11-08T12:42:50.190Z,2.10
2022-11-08T12:46:03.911Z,1.20
2022-11-08T12:48:44.547Z,1.73
2022-11-08T12:51:21.322Z,2.55
2022-11-08T12:54:13.088Z,0.73
2022-11-08T12:56:46.015Z,2.30
2022-11-08T12:59:37.355Z,3.63
2022-11-08T13:02:51.486Z,2.38
2022-11-08T13:06:13.566Z,1.33
2022-11-08T13:08:49.268Z,2.35
2022-11-08T13:11:35.378Z,2.95
2022-11-08T13:14:03.922Z,4.03
2022-11-08T13:16:39.423Z,5.95
2022-11-08T13:19:30.368Z,2.05
2022-11-08T13:21:59.240Z,4.70
2022-11-08T13:24:49.824Z,5.50
2022-11-08T13:27:44.660Z,9.10
2022-11-08T13:30:13.039Z,4.60
2022-11-08T13:32:52.673Z,4.63
2022-11-08T13:35:48.087Z,2.42
2022-11-08T13:38:41.422Z,2.30
2022-11-08T13:41:23.575Z,1.50
2022-11-08T13:43:54.305Z,3.05
2022-11-08T13:46:31.296Z,2.13
2022-11-08T13:49:13.748Z,5.53
2022-11-08T13:51:42.651Z,2.88
2022-11-08T13:54:24.122Z,0.85
2022-11-08T13:56:56.730Z,3.28
2022-11-08T13:59:32.124Z,0.65
2022-11-08T14:02:03.354Z,1.35
2022-11-08T14:04:40.639Z,3.10
2022-11-08T14:07:26.143Z,1.98
2022-11-08T14:10:04.323Z,4.45
2022-11-08T14:12:43.342Z,1.30
2022-11-08T14:15:35.892Z,1.10
2022-11-08T14:18:15.040Z,1.95
2022-11-08T14:20:45.338Z,2.10
2022-11-08T14:23:13.579Z,3.25
2022-11-08T14:25:42.599Z,2.33
2022-11-08T14:28:53.385Z,2.45
2022-11-08T14:31:26.694Z,4.32
2022-11-08T14:33:55.696Z,3.05
2022-11-08T14:36:25.881Z,6.18
2022-11-08T14:39:01.926Z,2.17
2022-11-08T14:41:31.862Z,1.45
2022-11-08T14:44:03.939Z,0.30
2022-11-08T14:46:41.827Z,2.22
2022-11-08T14:49:18.486Z,1.25
2022-11-08T14:51:47.080Z,1.02
2022-11-08T14:54:20.425Z,2.25
2022-11-08T14:56:50.572Z,1.38
2022-11-08T14:59:18.712Z,2.28
2022-11-08T15:01:48.793Z,6.28
2022-11-08T15:04:24.257Z,1.83
2022-11-08T15:06:58.678Z,2.15
2022-11-08T15:09:33.675Z,2.15
2022-11-08T15:12:22.614Z,3.55
2022-11-08T15:15:03.602Z,2.35
2022-11-08T15:17:42.521Z,1.10
2022-11-08T15:20:14.208Z,1.83
2022-11-08T15:22:46.474Z,1.27
2022-11-08T15:25:17.389Z,2.47
2022-11-08T15:27:55.175Z,4.43
2022-11-08T15:30:38.338Z,5.82
2022-11-08T15:33:06.504Z,1.63
2022-11-08T15:35:40.887Z,3.20
2022-11-08T15:38:33.480Z,4.70
2022-11-08T15:41:40.481Z,2.55
2022-11-08T15:44:15.981Z,4.15
2022-11-08T15:46:44.259Z,7.72
2022-11-08T15:49:27.138Z,1.17
2022-11-08T15:52:00.254Z,5.82
2022-11-08T15:54:28.366Z,1.98
2022-11-08T15:56:59.176Z,3.08
2022-11-08T15:59:30.795Z,3.72
2022-11-08T16:02:03.173Z,2.00
2022-11-08T16:04:31.171Z,2.97
2022-11-08T16:07:01.795Z,4.40
2022-11-08T16:09:32.019Z,2.83
2022-11-08T16:12:05.906Z,3.55
2022-11-08T16:14:33.679Z,5.55
2022-11-08T16:17:02.060Z,5.35
2022-11-08T16:19:30.419Z,4.03
2022-11-08T16:22:07.245Z,3.67
2022-11-08T16:24:39.294Z,8.30
2022-11-08T16:27:07.093Z,4.82
2022-11-08T16:29:37.776Z,4.93
2022-11-08T16:32:06.878Z,4.60
2022-11-08T16:34:37.128Z,6.18
2022-11-08T16:37:09.595Z,8.85
2022-11-08T16:39:37.305Z,5.82
2022-11-08T16:42:15.202Z,3.35
2022-11-08T16:44:45.601Z,5.25
2022-11-08T16:47:18.846Z,6.53
2022-11-08T16:49:51.443Z,3.40
2022-11-08T16:52:22.215Z,4.90
2022-11-08T16:57:34.336Z,5.32
2022-11-08T17:00:09.492Z,6.97
2022-11-08T17:02:42.054Z,2.83
2022-11-08T17:05:16.827Z,9.10
2022-11-08T17:07:47.123Z,5.05
2022-11-08T17:10:28.222Z,4.60
2022-11-08T17:13:00.524Z,5.07
2022-11-08T17:15:28.628Z,7.32
2022-11-08T17:18:03.206Z,6.75
2022-11-08T17:20:39.901Z,3.63
2022-11-08T17:23:09.131Z,2.20
2022-11-08T17:25:44.586Z,4.72
2022-11-08T17:28:13.233Z,7.53
2022-11-08T17:30:44.315Z,3.67
2022-11-08T17:33:16.208Z,9.70
2022-11-08T17:35:47.408Z,5.63
2022-11-08T17:38:18.687Z,8.70
2022-11-08T17:40:46.665Z,5.68
2022-11-08T17:43:16.399Z,4.45
2022-11-08T17:45:45.291Z,8.32
2022-11-08T17:48:15.101Z,8.73
2022-11-08T17:50:47.356Z,8.75
2022-11-08T17:53:18.454Z,7.00
2022-11-08T17:56:03.889Z,8.65
2022-11-08T17:58:35.204Z,10.32
2022-11-08T18:01:09.420Z,7.45
2022-11-08T18:03:37.855Z,6.70
2022-11-08T18:06:11.425Z,4.88
2022-11-08T18:08:44.156Z,6.05
2022-11-08T18:11:12.102Z,5.60
2022-11-08T18:13:40.321Z,4.97
2022-11-08T18:16:14.724Z,4.00
2022-11-08T18:18:44.607Z,7.13
2022-11-08T18:21:13.378Z,6.97
2022-11-08T18:23:46.128Z,4.18
2022-11-08T18:26:17.772Z,11.70
2022-11-08T18:28:48.767Z,10.00
2022-11-08T18:31:21.831Z,3.53
2022-11-08T18:33:50.179Z,6.47
2022-11-08T18:36:20.869Z,4.90
2022-11-08T18:38:52.055Z,3.72
2022-11-08T18:41:25.420Z,5.90
2022-11-08T18:43:55.817Z,2.72
2022-11-08T18:46:26.023Z,9.52
2022-11-08T18:48:54.349Z,3.50
2022-11-08T18:51:23.876Z,6.35
2022-11-08T18:53:52.656Z,9.30
2022-11-08T18:56:21.135Z,4.90
2022-11-08T18:58:49.441Z,5.90
2022-11-08T19:01:17.784Z,7.32
2022-11-08T19:03:46.362Z,6.03
2022-11-08T19:08:44.963Z,1.83
2022-11-08T19:11:14.724Z,5.32
2022-11-08T19:13:43.020Z,6.30
2022-11-08T19:16:16.223Z,4.18
2022-11-08T19:18:45.581Z,2.42
2022-11-08T19:21:25.862Z,4.18
2022-11-08T19:23:58.641Z,7.78
2022-11-08T19:26:30.725Z,1.85
2022-11-08T19:28:59.402Z,7.55
2022-11-08T19:31:29.707Z,6.00
2022-11-08T19:34:00.970Z,7.45
2022-11-08T19:36:35.572Z,7.35
2022-11-08T19:39:06.392Z,6.38
2022-11-08T19:41:36.632Z,8.77
2022-11-08T19:44:05.690Z,6.85
2022-11-08T19:46:36.543Z,3.72
2022-11-08T19:49:09.921Z,10.02
2022-11-08T19:51:38.254Z,9.45
2022-11-08T19:54:10.116Z,3.60
2022-11-08T19:57:03.318Z,9.70
2022-11-08T19:59:25.971Z,9.50
2022-11-08T20:01:56.522Z,7.38
2022-11-08T20:04:24.830Z,9.40
2022-11-08T20:06:55.521Z,8.60
2022-11-08T20:09:30.026Z,6.00
2022-11-08T20:12:03.347Z,10.18
2022-11-08T20:14:31.469Z,5.43
2022-11-08T20:16:59.272Z,5.60
2022-11-08T20:19:27.512Z,7.22
2022-11-08T20:21:57.344Z,5.88
2022-11-08T20:24:25.142Z,6.95
2022-11-08T20:26:55.333Z,4.72
2022-11-08T20:29:23.479Z,9.85
2022-11-08T20:31:53.219Z,2.78
2022-11-08T20:34:21.418Z,6.38
2022-11-08T20:36:52.012Z,5.35
2022-11-08T20:39:20.273Z,7.65
2022-11-08T20:41:48.498Z,7.68
2022-11-08T20:44:16.641Z,12.00
2022-11-08T20:46:45.304Z,7.65
2022-11-08T20:49:13.504Z,10.45
2022-11-08T20:51:41.112Z,5.05
2022-11-08T20:54:10.582Z,9.55
2022-11-08T20:56:40.523Z,5.60
2022-11-08T20:59:09.008Z,8.88
2022-11-08T21:01:37.284Z,8.00
2022-11-08T21:04:08.794Z,8.98
2022-11-08T21:06:37.550Z,8.82
2022-11-08T21:09:32.799Z,6.47
2022-11-08T21:11:55.122Z,7.47
2022-11-08T21:14:25.621Z,11.00
2022-11-08T21:19:48.331Z,11.55
2022-11-08T21:22:19.067Z,5.90
2022-11-08T21:24:48.806Z,11.13
2022-11-08T21:27:17.720Z,13.93
2022-11-08T21:29:47.503Z,8.55
2022-11-08T21:32:18.121Z,3.25
2022-11-08T21:34:47.275Z,9.68
2022-11-08T21:37:16.189Z,9.02
2022-11-08T21:39:48.474Z,5.25
2022-11-08T21:42:18.664Z,7.90
2022-11-08T21:44:46.324Z,6.75
2022-11-08T21:47:19.335Z,12.27
2022-11-08T21:49:49.760Z,5.05
2022-11-08T21:52:22.739Z,14.60
2022-11-08T21:54:51.756Z,6.18
2022-11-08T21:57:20.073Z,8.43
2022-11-08T21:59:50.186Z,9.32
2022-11-08T22:02:18.852Z,8.63
2022-11-08T22:04:48.033Z,8.48
2022-11-08T22:07:16.291Z,5.65
2022-11-08T22:09:47.621Z,8.30
2022-11-08T22:12:17.783Z,8.35
2022-11-08T22:14:46.950Z,16.42
2022-11-08T22:17:14.757Z,6.13
2022-11-08T22:19:42.960Z,13.23
2022-11-08T22:22:11.281Z,10.65
2022-11-08T22:24:41.723Z,16.20
2022-11-08T22:27:13.317Z,28.98
2022-11-08T22:29:41.001Z,10.70
2022-11-08T22:32:09.337Z,11.00
2022-11-08T22:34:37.148Z,13.48
2022-11-08T22:37:05.013Z,14.02
2022-11-08T22:39:34.722Z,16.27
2022-11-08T22:42:02.945Z,12.60
2022-11-08T22:44:31.350Z,31.48
2022-11-08T22:47:02.401Z,16.52
2022-11-08T22:49:30.720Z,8.57
2022-11-08T22:51:59.043Z,9.50
2022-11-08T22:54:26.926Z,10.98
2022-11-08T22:56:54.587Z,17.35
2022-11-08T22:59:26.782Z,13.23
2022-11-08T23:01:57.286Z,13.40
2022-11-08T23:04:25.636Z,12.07
2022-11-08T23:06:53.450Z,10.27
2022-11-08T23:09:25.760Z,11.98
2022-11-08T23:12:12.598Z,8.93
2022-11-08T23:15:03.709Z,15.82
2022-11-08T23:17:34.034Z,13.88
2022-11-08T23:20:21.772Z,9.65
2022-11-08T23:23:09.091Z,16.38
2022-11-08T23:25:37.317Z,8.80
2022-11-08T23:28:24.201Z,12.05
2022-11-08T23:31:11.111Z,15.25
2022-11-08T23:33:45.882Z,18.08
2022-11-08T23:36:15.857Z,10.38
2022-11-08T23:38:44.332Z,12.45
2022-11-08T23:41:31.260Z,11.27
2022-11-08T23:44:17.707Z,8.68
2022-11-08T23:46:45.590Z,10.55
2022-11-08T23:49:13.880Z,8.52
2022-11-08T23:54:11.964Z,13.82
2022-11-08T23:56:39.718Z,16.90
2022-11-08T23:59:07.564Z,10.45
